Hauptseite
METAR-TAF:

METAR-TAF

Flughäfen :

Flugplatz Laupheim

Laupheim, Deutschland

Breite: 48-13N, Länge: 009-55E, Höhe: 538 m

Beobachtung

Neuester Wetterbericht von vor 26 Minuten, um 04:20 UTC
Wind 4 kt aus Südwest
Temperatur 0°C
Luftfeuchtigkeit 100%
Luftdruck 1027 hPa
Sichtweite: 4000 m
feuchter Dunst

METAR: ETHL 210420Z 23004KT 4000 BR 00/M00 Q1027 GRN

Zeit: 05:46 (04:46 UTC)

Prognose

Neuester Wetterbericht von vor 8 Stunden und 20 Minuten, um 20:26 UTC
Gültige Prognose vom 20 um 21 UTC bis 21 um 06 UTC
Wind 3 kt aus unterschiedlichen Richtungen
Sichtweite: 2130 m
Leicht bewölkt in der Höhe von 3000 ft
Aufgelockert bewölkt in der Höhe von 4000 ft
Durchbrochene Bewölkung in der Höhe von 15000 ft

TAF: ETHL 202026Z 2021/2106 VRB03KT 9999 NSW FEW030 SCT040 BKN150 CANCEL 2130

Wetterbeobachtungen und Prognosen von mehr als 4000 Flughäfen (METAR und TAF Bericht).

Die verfügbaren Stationen werden durch gelbe und rote Markierungen auf der Karte dargestellt.

Führen Sie die Maus auf sie, um den Namen der Station zu sehen.

Darauf klicken, um die Beobachtung von Wetterbeobachtungen und Prognosen zu sehen.

Um die Karte zu ändern : klicken Sie auf den grünen Tasten mit einem schwarzen Kreuz Zum Vergrößern, auf den grünen Button mit einem Gedankenstrich zu verkleinern, oder auf die grünen Pfeile für benachbarte Karten.


METAR-TAF: